createdAt,value
2023-01-21T00:04:35.775Z,21.40
2023-01-21T00:09:39.697Z,21.30
2023-01-21T00:14:43.744Z,21.40
2023-01-21T00:19:47.668Z,21.40
2023-01-21T00:24:51.699Z,21.40
2023-01-21T00:29:55.630Z,21.60
2023-01-21T00:34:59.662Z,22.10
2023-01-21T00:40:05.844Z,22.50
2023-01-21T00:45:10.579Z,22.70
2023-01-21T00:50:14.704Z,22.80
2023-01-21T00:55:18.978Z,22.90
2023-01-21T01:00:23.284Z,22.90
2023-01-21T01:05:27.439Z,23.00
2023-01-21T01:10:31.258Z,23.10
2023-01-21T01:15:35.309Z,23.20
2023-01-21T01:20:43.527Z,23.30
2023-01-21T01:25:59.154Z,23.40
2023-01-21T01:31:06.554Z,23.50
2023-01-21T01:36:20.831Z,23.60
2023-01-21T01:41:27.807Z,23.70
2023-01-21T01:46:37.280Z,23.80
2023-01-21T01:51:50.980Z,23.80
2023-01-21T01:56:59.547Z,23.80
2023-01-21T02:02:11.177Z,23.70
2023-01-21T02:07:17.607Z,23.60
2023-01-21T02:12:22.795Z,23.60
2023-01-21T02:18:03.374Z,23.50
2023-01-21T02:23:22.845Z,23.40
2023-01-21T02:28:49.088Z,23.20
2023-01-21T02:34:11.647Z,23.10
2023-01-21T02:39:21.408Z,22.90
2023-01-21T02:44:33.199Z,22.70
2023-01-21T02:49:47.368Z,22.60
2023-01-21T02:54:53.197Z,22.60
2023-01-21T02:59:59.066Z,22.60
2023-01-21T03:05:21.368Z,22.60
2023-01-21T03:10:35.837Z,22.40
2023-01-21T03:16:07.067Z,22.30
2023-01-21T03:21:19.770Z,22.10
2023-01-21T03:26:37.410Z,22.00
2023-01-21T03:31:43.893Z,22.00
2023-01-21T03:36:58.037Z,21.90
2023-01-21T03:42:03.079Z,21.90
2023-01-21T03:47:23.082Z,21.90
2023-01-21T03:52:27.905Z,21.80
2023-01-21T03:57:31.955Z,21.80
2023-01-21T04:02:35.983Z,21.80
2023-01-21T04:07:40.444Z,21.70
2023-01-21T04:12:44.663Z,21.70
2023-01-21T04:17:48.694Z,21.70
2023-01-21T04:22:52.840Z,21.90
2023-01-21T04:27:58.550Z,22.30
2023-01-21T04:33:03.768Z,22.50
2023-01-21T04:38:07.800Z,22.70
2023-01-21T04:43:11.830Z,22.80
2023-01-21T04:48:15.693Z,23.10
2023-01-21T04:53:19.585Z,23.20
2023-01-21T04:58:23.843Z,23.40
2023-01-21T05:03:28.263Z,23.30
2023-01-21T05:08:32.500Z,23.30
2023-01-21T05:13:36.432Z,23.30
2023-01-21T05:18:46.780Z,23.30
2023-01-21T05:23:50.841Z,23.40
2023-01-21T05:28:54.775Z,23.40
2023-01-21T05:33:59.010Z,23.40
2023-01-21T05:39:03.143Z,23.50
2023-01-21T05:44:09.631Z,23.50
2023-01-21T05:49:13.678Z,23.50
2023-01-21T05:54:17.709Z,23.50
2023-01-21T05:59:21.882Z,23.50
2023-01-21T06:04:30.899Z,23.50
2023-01-21T06:09:35.013Z,23.50
2023-01-21T06:14:39.052Z,23.50
2023-01-21T06:19:43.182Z,23.60
2023-01-21T06:24:47.233Z,23.50
2023-01-21T06:29:51.364Z,23.40
2023-01-21T06:34:55.281Z,23.20
2023-01-21T06:39:59.319Z,23.00
2023-01-21T06:45:04.066Z,22.90
2023-01-21T06:50:09.748Z,22.70
2023-01-21T06:55:15.413Z,22.60
2023-01-21T07:00:20.189Z,22.60
2023-01-21T07:05:24.483Z,22.50
2023-01-21T07:10:28.614Z,22.50
2023-01-21T07:15:32.561Z,22.30
2023-01-21T07:20:38.293Z,22.10
2023-01-21T07:25:44.201Z,22.00
2023-01-21T07:30:48.174Z,21.90
2023-01-21T07:35:52.261Z,21.80
2023-01-21T07:40:56.191Z,21.80
2023-01-21T07:46:00.761Z,21.70
2023-01-21T07:51:05.014Z,21.60
2023-01-21T07:56:12.704Z,21.70
2023-01-21T08:01:16.737Z,22.00
2023-01-21T08:06:20.741Z,22.40
2023-01-21T08:11:25.094Z,22.60
2023-01-21T08:16:30.117Z,22.70
2023-01-21T08:21:34.282Z,22.90
2023-01-21T08:26:38.507Z,23.00
2023-01-21T08:31:42.477Z,23.00
2023-01-21T08:36:46.595Z,23.10
2023-01-21T08:41:50.647Z,23.20
2023-01-21T08:46:55.066Z,23.20
2023-01-21T08:51:58.919Z,23.10
2023-01-21T08:57:03.337Z,22.90
2023-01-21T09:02:08.991Z,23.00
2023-01-21T09:07:13.432Z,23.00
2023-01-21T09:12:17.378Z,23.10
2023-01-21T09:17:23.335Z,23.10
2023-01-21T09:22:30.687Z,23.00
2023-01-21T09:27:34.982Z,23.10
2023-01-21T09:32:39.147Z,23.10
2023-01-21T09:37:43.477Z,23.20
2023-01-21T09:42:47.826Z,23.20
2023-01-21T09:47:52.936Z,23.10
2023-01-21T09:53:06.939Z,23.10
2023-01-21T09:58:25.705Z,23.20
2023-01-21T10:03:48.140Z,23.40
2023-01-21T10:09:03.550Z,23.50
2023-01-21T10:14:32.532Z,23.30
2023-01-21T10:19:42.609Z,23.10
2023-01-21T10:24:59.089Z,22.90
2023-01-21T10:30:28.856Z,22.70
2023-01-21T10:35:59.182Z,22.60
2023-01-21T10:41:36.672Z,22.50
2023-01-21T10:46:52.491Z,22.40
2023-01-21T10:52:06.337Z,22.40
2023-01-21T10:57:13.492Z,22.20
2023-01-21T11:02:24.769Z,22.10
2023-01-21T11:07:35.238Z,22.20
2023-01-21T11:12:39.452Z,22.30
2023-01-21T11:17:46.408Z,22.20
2023-01-21T11:22:51.844Z,22.10
2023-01-21T11:27:55.952Z,22.20
2023-01-21T11:33:25.903Z,22.00
2023-01-21T11:38:30.203Z,21.90
2023-01-21T11:43:49.052Z,21.90
2023-01-21T11:49:08.667Z,21.80
2023-01-21T11:54:15.464Z,21.70
2023-01-21T11:59:57.364Z,21.70
2023-01-21T12:05:12.545Z,21.70
2023-01-21T12:10:28.458Z,21.70
2023-01-21T12:16:04.040Z,21.70
2023-01-21T12:21:17.339Z,21.60
2023-01-21T12:26:32.331Z,21.80
2023-01-21T12:31:43.154Z,22.20
2023-01-21T12:36:57.002Z,22.40
2023-01-21T12:42:20.663Z,22.50
2023-01-21T12:47:35.225Z,22.60
2023-01-21T12:52:49.017Z,22.70
2023-01-21T12:58:04.554Z,22.80
2023-01-21T13:03:29.996Z,22.80
2023-01-21T13:08:56.770Z,22.90
2023-01-21T13:14:07.844Z,23.00
2023-01-21T13:19:15.760Z,23.00
2023-01-21T13:24:30.065Z,23.20
2023-01-21T13:29:57.006Z,23.10
2023-01-21T13:35:13.247Z,23.10
2023-01-21T13:40:20.289Z,23.20
2023-01-21T13:46:02.914Z,23.30
2023-01-21T13:51:17.223Z,23.40
2023-01-21T13:56:41.112Z,23.30
2023-01-21T14:01:52.819Z,23.40
2023-01-21T14:07:23.556Z,23.60
2023-01-21T14:12:41.550Z,23.60
2023-01-21T14:18:09.726Z,23.50
2023-01-21T14:23:46.829Z,23.30
2023-01-21T14:29:19.106Z,23.20
2023-01-21T14:34:34.895Z,23.20
2023-01-21T14:39:59.510Z,23.20
2023-01-21T14:45:06.054Z,23.10
2023-01-21T14:50:10.862Z,23.10
2023-01-21T14:55:28.669Z,23.00
2023-01-21T15:00:37.781Z,22.70
2023-01-21T15:05:44.821Z,22.80
2023-01-21T15:11:31.555Z,22.80
2023-01-21T15:16:41.878Z,22.70
2023-01-21T15:22:00.814Z,22.60
2023-01-21T15:27:27.096Z,22.40
2023-01-21T15:32:46.021Z,22.40
2023-01-21T15:37:53.408Z,22.40
2023-01-21T15:43:06.166Z,22.30
2023-01-21T15:48:41.157Z,22.20
2023-01-21T15:53:52.331Z,22.20
2023-01-21T15:59:15.963Z,22.30
2023-01-21T16:04:39.370Z,22.20
2023-01-21T16:10:02.808Z,22.30
2023-01-21T16:15:43.223Z,22.10
2023-01-21T16:20:51.151Z,22.10
2023-01-21T16:25:56.825Z,22.10
2023-01-21T16:31:04.961Z,22.00
2023-01-21T16:36:14.397Z,21.70
2023-01-21T16:41:25.593Z,21.60
2023-01-21T16:46:35.045Z,21.50
2023-01-21T16:51:43.019Z,21.40
2023-01-21T16:56:54.627Z,21.30
2023-01-21T17:02:00.140Z,21.30
2023-01-21T17:07:05.882Z,21.60
2023-01-21T17:12:24.939Z,22.00
2023-01-21T17:17:35.969Z,22.30
2023-01-21T17:22:45.049Z,22.50
2023-01-21T17:27:50.239Z,22.70
2023-01-21T17:32:57.991Z,22.70
2023-01-21T17:38:06.438Z,22.70
2023-01-21T17:43:24.853Z,22.80
2023-01-21T17:48:35.432Z,22.80
2023-01-21T17:53:49.504Z,22.80
2023-01-21T17:58:56.490Z,22.90
2023-01-21T18:04:01.557Z,22.90
2023-01-21T18:09:06.814Z,23.00
2023-01-21T18:14:20.770Z,22.90
2023-01-21T18:19:31.985Z,22.90
2023-01-21T18:24:40.051Z,22.90
2023-01-21T18:29:47.010Z,23.00
2023-01-21T18:34:52.571Z,23.00
2023-01-21T18:39:57.936Z,23.00
2023-01-21T18:45:05.222Z,23.10
2023-01-21T18:50:16.771Z,23.10
2023-01-21T18:55:26.997Z,23.20
2023-01-21T19:00:34.744Z,23.20
2023-01-21T19:05:42.696Z,23.30
2023-01-21T19:10:48.780Z,23.10
2023-01-21T19:15:54.157Z,23.20
2023-01-21T19:20:59.575Z,23.20
2023-01-21T19:26:06.981Z,23.20
2023-01-21T19:31:13.990Z,23.20
2023-01-21T19:36:21.330Z,23.20
2023-01-21T19:41:27.585Z,23.20
2023-01-21T19:46:33.316Z,23.20
2023-01-21T19:51:38.889Z,23.20
2023-01-21T19:56:45.898Z,23.30
2023-01-21T20:01:51.353Z,23.20
2023-01-21T20:06:57.458Z,23.30
2023-01-21T20:12:04.307Z,23.30
2023-01-21T20:17:18.180Z,23.20
2023-01-21T20:22:27.138Z,23.20
2023-01-21T20:27:32.338Z,23.20
2023-01-21T20:32:37.977Z,23.30
2023-01-21T20:37:49.723Z,23.30
2023-01-21T20:42:56.373Z,23.20
2023-01-21T20:48:03.581Z,23.20
2023-01-21T20:53:12.086Z,23.30
2023-01-21T20:58:19.242Z,23.30
2023-01-21T21:03:24.258Z,23.20
2023-01-21T21:08:34.832Z,23.30
2023-01-21T21:13:40.250Z,23.30
2023-01-21T21:18:44.640Z,23.40
2023-01-21T21:23:51.804Z,23.30
2023-01-21T21:28:57.920Z,23.40
2023-01-21T21:34:03.451Z,23.30
2023-01-21T21:39:08.182Z,23.40
2023-01-21T21:44:13.556Z,23.30
2023-01-21T21:49:18.069Z,23.40
2023-01-21T21:54:23.943Z,23.40
2023-01-21T21:59:28.670Z,23.40
2023-01-21T22:04:33.532Z,23.40
2023-01-21T22:09:38.196Z,23.40
2023-01-21T22:14:42.419Z,23.40
2023-01-21T22:19:46.448Z,23.30
2023-01-21T22:24:52.436Z,23.20
2023-01-21T22:30:00.095Z,23.10
2023-01-21T22:35:06.028Z,23.00
2023-01-21T22:40:10.803Z,22.80
2023-01-21T22:45:15.094Z,22.70
2023-01-21T22:50:19.523Z,22.60
2023-01-21T22:55:23.573Z,22.40
2023-01-21T23:00:38.241Z,22.40
2023-01-21T23:05:42.582Z,22.50
2023-01-21T23:10:47.553Z,22.40
2023-01-21T23:15:51.736Z,22.20
2023-01-21T23:20:56.422Z,22.20
2023-01-21T23:26:00.349Z,22.00
2023-01-21T23:31:06.493Z,22.00
2023-01-21T23:36:16.045Z,21.90
2023-01-21T23:41:21.349Z,21.80
2023-01-21T23:46:25.535Z,21.80
2023-01-21T23:51:29.721Z,21.80
2023-01-21T23:56:33.660Z,22.20
